createdAt,value
2022-08-19T00:00:29.617Z,27.39
2022-08-19T00:02:57.835Z,27.42
2022-08-19T00:05:26.079Z,27.43
2022-08-19T00:07:54.305Z,27.35
2022-08-19T00:10:22.579Z,27.28
2022-08-19T00:13:27.923Z,27.23
2022-08-19T00:15:56.119Z,27.24
2022-08-19T00:18:24.392Z,27.24
2022-08-19T00:21:29.692Z,27.23
2022-08-19T00:23:57.947Z,27.22
2022-08-19T00:26:26.188Z,27.23
2022-08-19T00:28:54.425Z,28.49
2022-08-19T00:31:59.737Z,27.17
2022-08-19T00:34:27.992Z,27.18
2022-08-19T00:37:29.192Z,27.19
2022-08-19T00:39:57.493Z,27.17
2022-08-19T00:42:25.678Z,27.08
2022-08-19T00:44:53.955Z,27.07
2022-08-19T00:47:22.177Z,27.01
2022-08-19T00:50:27.496Z,26.95
2022-08-19T00:52:55.752Z,26.94
2022-08-19T00:55:23.992Z,26.99
2022-08-19T00:58:29.319Z,26.95
2022-08-19T01:00:57.578Z,26.95
2022-08-19T01:03:25.827Z,27.06
2022-08-19T01:05:54.051Z,27.05
2022-08-19T01:08:22.283Z,27.06
2022-08-19T01:11:27.603Z,27.01
2022-08-19T01:13:55.841Z,26.99
2022-08-19T01:16:24.095Z,26.97
2022-08-19T01:19:29.459Z,26.96
2022-08-19T01:21:57.684Z,27
2022-08-19T01:24:25.957Z,26.94
2022-08-19T01:26:54.150Z,26.9
2022-08-19T01:29:22.399Z,27.04
2022-08-19T01:32:32.127Z,27.02
2022-08-19T01:34:55.998Z,27.04
2022-08-19T01:37:16.015Z,27.08
2022-08-19T01:40:21.323Z,27.08
2022-08-19T01:43:26.677Z,27.03
2022-08-19T01:45:54.936Z,27.02
2022-08-19T01:48:23.181Z,26.98
2022-08-19T01:51:28.491Z,27.03
2022-08-19T01:53:56.711Z,27.03
2022-08-19T01:56:24.978Z,26.99
2022-08-19T01:58:53.216Z,26.94
2022-08-19T02:01:21.515Z,26.89
2022-08-19T02:04:26.768Z,26.95
2022-08-19T02:06:54.990Z,26.96
2022-08-19T02:09:23.260Z,26.77
2022-08-19T02:12:28.569Z,26.95
2022-08-19T02:14:56.829Z,26.89
2022-08-19T02:17:25.070Z,26.88
2022-08-19T02:19:53.379Z,26.89
2022-08-19T02:22:21.557Z,26.78
2022-08-19T02:25:26.852Z,26.65
2022-08-19T02:27:55.146Z,26.62
2022-08-19T02:30:23.386Z,26.45
2022-08-19T02:33:28.663Z,26.54
2022-08-19T02:35:56.923Z,26.53
2022-08-19T02:38:16.987Z,26.45
2022-08-19T02:41:22.285Z,26.54
2022-08-19T02:44:30.736Z,26.54
2022-08-19T02:46:55.886Z,26.53
2022-08-19T02:49:24.095Z,26.63
2022-08-19T02:52:29.444Z,26.57
2022-08-19T02:54:57.639Z,26.55
2022-08-19T02:57:25.941Z,26.54
2022-08-19T02:59:54.187Z,26.45
2022-08-19T03:02:22.418Z,26.4
2022-08-19T03:05:47.949Z,26.41
2022-08-19T03:07:55.979Z,26.43
2022-08-19T03:10:24.243Z,26.42
2022-08-19T03:13:29.520Z,26.41
2022-08-19T03:15:57.742Z,26.4
2022-08-19T03:18:26.035Z,26.44
2022-08-19T03:20:54.285Z,26.47
2022-08-19T03:23:22.511Z,26.43
2022-08-19T03:26:27.805Z,26.36
2022-08-19T03:28:57.918Z,26.36
2022-08-19T03:31:42.341Z,26.41
2022-08-19T03:34:29.620Z,26.33
2022-08-19T03:38:03.870Z,26.3
2022-08-19T03:41:09.119Z,26.34
2022-08-19T03:44:16.885Z,26.3
2022-08-19T03:47:19.766Z,26.34
2022-08-19T03:50:25.052Z,26.26
2022-08-19T03:53:30.372Z,26.24
2022-08-19T03:55:58.630Z,26.23
2022-08-19T03:58:26.903Z,26.27
2022-08-19T04:00:55.184Z,26.23
2022-08-19T04:03:23.354Z,25.99
2022-08-19T04:06:28.635Z,26.09
2022-08-19T04:08:56.894Z,26.09
2022-08-19T04:11:42.638Z,26.11
2022-08-19T04:13:53.442Z,26.11
2022-08-19T04:16:21.630Z,26
2022-08-19T04:19:26.960Z,25.93
2022-08-19T04:21:55.255Z,25.91
2022-08-19T04:24:23.479Z,25.83
2022-08-19T04:27:28.747Z,25.9
2022-08-19T04:29:57.079Z,25.93
2022-08-19T04:32:25.250Z,26.02
2022-08-19T04:35:30.622Z,26.04
2022-08-19T04:38:27.697Z,26.07
2022-08-19T04:40:55.924Z,26.08
2022-08-19T04:43:24.204Z,25.99
2022-08-19T04:46:39.697Z,26.04
2022-08-19T04:48:57.792Z,26.09
2022-08-19T04:51:26.007Z,26.12
2022-08-19T04:54:38.099Z,26.19
2022-08-19T04:56:59.564Z,26.15
2022-08-19T04:59:27.809Z,26.16
2022-08-19T05:01:56.051Z,26.19
2022-08-19T05:04:24.467Z,26.11
2022-08-19T05:07:29.617Z,26.18
2022-08-19T05:09:59.001Z,26.19
2022-08-19T05:12:29.058Z,26.07
2022-08-19T05:14:54.328Z,26.08
2022-08-19T05:17:28.356Z,25.9
2022-08-19T05:20:27.918Z,25.82
2022-08-19T05:23:28.201Z,25.83
2022-08-19T05:25:24.383Z,25.93
2022-08-19T05:28:29.728Z,25.91
2022-08-19T05:30:57.971Z,25.92
2022-08-19T05:33:26.187Z,25.99
2022-08-19T05:35:54.454Z,25.98
2022-08-19T05:38:14.535Z,26.04
2022-08-19T05:41:19.833Z,25.97
2022-08-19T05:44:25.144Z,25.95
2022-08-19T05:47:30.468Z,26
2022-08-19T05:49:58.669Z,25.97
2022-08-19T05:52:26.924Z,25.95
2022-08-19T05:54:55.180Z,25.97
2022-08-19T05:57:23.470Z,25.96
2022-08-19T06:00:28.799Z,26.15
2022-08-19T06:02:57.041Z,26.19
2022-08-19T06:05:25.230Z,26.26
2022-08-19T06:08:33.638Z,26.27
2022-08-19T06:10:58.830Z,26.26
2022-08-19T06:13:27.082Z,26.22
2022-08-19T06:15:55.323Z,26.25
2022-08-19T06:18:23.561Z,26.18
2022-08-19T06:21:28.838Z,26.4
2022-08-19T06:23:57.086Z,26.44
2022-08-19T06:26:25.353Z,26.39
2022-08-19T06:28:53.636Z,26.33
2022-08-19T06:31:21.854Z,26.32
2022-08-19T06:34:27.179Z,26.39
2022-08-19T06:36:55.429Z,26.4
2022-08-19T06:39:52.606Z,26.3
2022-08-19T06:42:22.406Z,26.25
2022-08-19T06:45:33.246Z,26.22
2022-08-19T06:47:54.361Z,26.24
2022-08-19T06:50:22.603Z,26.35
2022-08-19T06:53:27.889Z,26.36
2022-08-19T06:55:56.181Z,26.38
2022-08-19T06:58:24.426Z,26.29
2022-08-19T07:01:29.740Z,26.31
2022-08-19T07:03:57.970Z,26.34
2022-08-19T07:06:41.445Z,26.33
2022-08-19T07:08:54.430Z,26.33
2022-08-19T07:11:22.692Z,26.35
2022-08-19T07:14:28.039Z,26.36
2022-08-19T07:16:56.269Z,26.35
2022-08-19T07:19:24.483Z,26.36
2022-08-19T07:22:29.879Z,26.37
2022-08-19T07:24:58.101Z,26.4
2022-08-19T07:27:26.334Z,26.47
2022-08-19T07:29:56.394Z,27.22
2022-08-19T07:32:59.858Z,26.48
2022-08-19T07:35:28.117Z,26.53
2022-08-19T07:37:56.401Z,26.56
2022-08-19T07:40:16.516Z,26.55
2022-08-19T07:43:21.729Z,26.54
2022-08-19T07:46:27.062Z,26.54
2022-08-19T07:48:55.322Z,26.61
2022-08-19T07:51:29.529Z,26.64
2022-08-19T07:54:28.856Z,26.76
2022-08-19T07:56:57.170Z,26.79
2022-08-19T07:59:25.337Z,26.76
2022-08-19T08:02:30.642Z,26.79
2022-08-19T08:04:58.910Z,26.8
2022-08-19T08:07:31.314Z,26.84
2022-08-19T08:12:34.014Z,26.88
2022-08-19T08:15:28.988Z,27.11
2022-08-19T08:17:57.201Z,27.13
2022-08-19T08:20:25.456Z,27.1
2022-08-19T08:23:30.754Z,27.08
2022-08-19T08:25:59.052Z,27.11
2022-08-19T08:28:29.447Z,27.15
2022-08-19T08:30:55.581Z,27.15
2022-08-19T08:33:28.252Z,27.17
2022-08-19T08:36:29.097Z,27.15
2022-08-19T08:41:17.438Z,27.21
2022-08-19T08:44:22.788Z,27.27
2022-08-19T08:47:28.037Z,27.32
2022-08-19T08:49:56.269Z,27.34
2022-08-19T08:52:24.500Z,27.4
2022-08-19T08:55:36.580Z,27.4
2022-08-19T08:57:58.088Z,27.4
2022-08-19T09:00:26.305Z,27.51
2022-08-19T09:02:54.546Z,26.47
2022-08-19T09:05:59.887Z,27.61
2022-08-19T09:08:28.091Z,27.69
2022-08-19T09:10:56.401Z,27.71
2022-08-19T09:13:24.622Z,27.76
2022-08-19T09:16:29.936Z,27.8
2022-08-19T09:18:58.193Z,27.81
2022-08-19T09:21:30.261Z,27.81
2022-08-19T09:23:54.666Z,27.8
2022-08-19T09:26:22.935Z,27.83
2022-08-19T09:29:28.232Z,27.85
2022-08-19T09:31:56.462Z,27.86
2022-08-19T09:34:24.736Z,27.93
2022-08-19T09:37:30.053Z,28
2022-08-19T09:40:27.193Z,28.04
2022-08-19T09:42:55.422Z,28.07
2022-08-19T09:45:23.629Z,28
2022-08-19T09:48:29.014Z,28.21
2022-08-19T09:50:57.205Z,28.25
2022-08-19T09:53:25.791Z,28.29
2022-08-19T09:55:53.705Z,28.29
2022-08-19T09:58:26.087Z,28.29
2022-08-19T10:01:27.268Z,28.32
2022-08-19T10:03:55.510Z,28.32
2022-08-19T10:06:36.045Z,28.38
2022-08-19T10:09:34.175Z,28.5
2022-08-19T10:11:57.293Z,28.53
2022-08-19T10:14:25.580Z,28.62
2022-08-19T10:17:31.577Z,28.64
2022-08-19T10:19:59.145Z,28.64
2022-08-19T10:22:27.361Z,28.68
2022-08-19T10:24:55.669Z,27.6
2022-08-19T10:28:00.919Z,28.74
2022-08-19T10:30:29.192Z,28.81
2022-08-19T10:32:57.398Z,28.83
2022-08-19T10:35:25.672Z,28.9
2022-08-19T10:37:57.180Z,28.92
2022-08-19T10:40:22.249Z,28.92
2022-08-19T10:43:19.276Z,28.97
2022-08-19T10:46:24.605Z,29.03
2022-08-19T10:49:29.897Z,29.1
2022-08-19T10:51:58.165Z,29.13
2022-08-19T10:54:31.289Z,29.2
2022-08-19T10:56:54.661Z,28.73
2022-08-19T10:59:59.965Z,29.24
2022-08-19T11:02:28.214Z,29.18
2022-08-19T11:04:56.463Z,29.18
2022-08-19T11:07:24.702Z,29.23
2022-08-19T11:10:30.005Z,29.27
2022-08-19T11:12:58.267Z,29.27
2022-08-19T11:15:26.518Z,29.39
2022-08-19T11:17:54.963Z,29.4
2022-08-19T11:20:23.011Z,29.52
2022-08-19T11:23:28.358Z,29.65
2022-08-19T11:25:56.572Z,29.68
2022-08-19T11:28:24.789Z,29.83
2022-08-19T11:31:30.154Z,29.97
2022-08-19T11:33:58.460Z,30.03
2022-08-19T11:36:26.620Z,30.19
2022-08-19T11:39:59.587Z,30.19
2022-08-19T11:41:14.922Z,30.31
2022-08-19T11:44:20.243Z,30.46
2022-08-19T11:47:25.557Z,30.63
2022-08-19T11:49:53.808Z,30.68
2022-08-19T11:52:22.016Z,30.92
2022-08-19T11:55:27.372Z,31.01
2022-08-19T11:57:55.773Z,31.01
2022-08-19T12:00:23.865Z,31.1
2022-08-19T12:03:29.232Z,31.05
2022-08-19T12:05:57.424Z,31.06
2022-08-19T12:08:25.682Z,31.15
2022-08-19T12:11:31.222Z,31.31
2022-08-19T12:13:59.216Z,31.35
2022-08-19T12:16:27.492Z,31.47
2022-08-19T12:18:55.754Z,29.24
2022-08-19T12:21:23.950Z,31.75
2022-08-19T12:25:06.527Z,31.96
2022-08-19T12:28:11.663Z,32.13
2022-08-19T12:31:16.971Z,32.41
2022-08-19T12:34:22.244Z,32.58
2022-08-19T12:37:27.585Z,32.75
2022-08-19T12:39:55.869Z,32.78
2022-08-19T12:42:15.876Z,32.68
2022-08-19T12:45:58.230Z,32.64
2022-08-19T12:48:34.022Z,32.63
2022-08-19T12:50:54.763Z,32.61
2022-08-19T12:53:23.002Z,32.63
2022-08-19T12:56:28.324Z,32.77
2022-08-19T12:58:56.571Z,32.82
2022-08-19T13:01:24.827Z,33.06
2022-08-19T13:04:30.110Z,33.07
2022-08-19T13:06:58.368Z,33.09
2022-08-19T13:09:26.616Z,33.33
2022-08-19T13:11:54.839Z,33.4
2022-08-19T13:14:23.121Z,33.57
2022-08-19T13:17:28.465Z,33.57
2022-08-19T13:19:56.686Z,33.61
2022-08-19T13:22:24.919Z,33.78
2022-08-19T13:25:30.226Z,33.83
2022-08-19T13:27:58.474Z,33.84
2022-08-19T13:30:26.764Z,33.81
2022-08-19T13:32:54.977Z,33.79
2022-08-19T13:35:23.195Z,33.75
2022-08-19T13:38:28.552Z,33.88
2022-08-19T13:40:56.776Z,33.91
2022-08-19T13:43:25.020Z,34.11
2022-08-19T13:46:30.342Z,34.24
2022-08-19T13:48:58.614Z,34.3
2022-08-19T13:51:26.807Z,34.52
2022-08-19T13:55:01.002Z,34.59
2022-08-19T13:57:29.231Z,34.66
2022-08-19T13:59:57.544Z,34.7
2022-08-19T14:02:25.764Z,34.9
2022-08-19T14:04:54.026Z,34.88
2022-08-19T14:07:22.277Z,34.68
2022-08-19T14:10:27.595Z,34.52
2022-08-19T14:12:55.839Z,34.46
2022-08-19T14:15:24.078Z,34.25
2022-08-19T14:19:06.411Z,34.07
2022-08-19T14:22:11.763Z,33.88
2022-08-19T14:25:17.082Z,33.75
2022-08-19T14:28:22.347Z,33.78
2022-08-19T14:33:19.169Z,33.7
2022-08-19T14:36:24.178Z,33.64
2022-08-19T14:39:29.891Z,33.5
2022-08-19T14:41:57.744Z,33.49
2022-08-19T14:44:25.982Z,33.39
2022-08-19T14:47:31.277Z,33.29
2022-08-19T14:49:59.536Z,33.27
2022-08-19T14:52:27.837Z,33.18
2022-08-19T14:54:56.028Z,33.14
2022-08-19T14:57:24.284Z,33.07
2022-08-19T15:00:29.586Z,33.06
2022-08-19T15:03:34.932Z,33.03
2022-08-19T15:05:55.017Z,33
2022-08-19T15:08:23.218Z,32.88
2022-08-19T15:11:28.553Z,32.87
2022-08-19T15:13:56.760Z,32.86
2022-08-19T15:16:25.058Z,32.82
2022-08-19T15:19:30.326Z,32.77
2022-08-19T15:21:58.584Z,32.75
2022-08-19T15:24:26.835Z,32.66
2022-08-19T15:26:55.118Z,32.66
2022-08-19T15:29:23.341Z,32.59
2022-08-19T15:32:28.637Z,32.56
2022-08-19T15:34:56.875Z,32.54
2022-08-19T15:37:25.247Z,32.49
2022-08-19T15:40:30.502Z,32.49
2022-08-19T15:42:58.678Z,32.48
2022-08-19T15:45:30.578Z,32.47
2022-08-19T15:47:55.448Z,32.46
2022-08-19T15:50:23.456Z,32.41
2022-08-19T15:53:28.747Z,32.43
2022-08-19T15:55:57.014Z,32.47
2022-08-19T15:58:28.195Z,32.55
2022-08-19T16:01:30.562Z,32.55
2022-08-19T16:03:50.639Z,32.54
2022-08-19T16:06:18.824Z,32.54
2022-08-19T16:09:27.444Z,32.54
2022-08-19T16:12:29.454Z,32.54
2022-08-19T16:14:57.762Z,32.55
2022-08-19T16:17:25.983Z,32.52
2022-08-19T16:19:54.303Z,32.52
2022-08-19T16:22:22.468Z,32.5
2022-08-19T16:25:27.804Z,32.49
2022-08-19T16:28:06.974Z,32.48
2022-08-19T16:30:24.278Z,32.47
2022-08-19T16:33:29.591Z,32.43
2022-08-19T16:36:00.018Z,32.41
2022-08-19T16:38:26.125Z,32.34
2022-08-19T16:40:54.352Z,32.33
2022-08-19T16:43:22.609Z,32.3
2022-08-19T16:46:27.941Z,32.28
2022-08-19T16:48:56.121Z,32.28
2022-08-19T16:51:24.415Z,32.18
2022-08-19T16:54:32.524Z,32.09
2022-08-19T16:56:57.979Z,32.04
2022-08-19T16:59:26.300Z,31.95
2022-08-19T17:01:54.510Z,31.94
2022-08-19T17:04:58.451Z,31.91
2022-08-19T17:07:19.911Z,31.89
2022-08-19T17:10:25.121Z,31.88
2022-08-19T17:13:30.445Z,31.86
2022-08-19T17:15:58.670Z,31.86
2022-08-19T17:18:26.915Z,31.83
2022-08-19T17:20:56.876Z,31.82
2022-08-19T17:23:23.450Z,31.82
2022-08-19T17:26:28.768Z,31.78
2022-08-19T17:28:56.982Z,31.78
2022-08-19T17:31:25.238Z,31.76
2022-08-19T17:34:30.564Z,31.79
2022-08-19T17:36:58.822Z,31.79
2022-08-19T17:39:27.049Z,31.75
2022-08-19T17:41:55.325Z,31.74
2022-08-19T17:44:23.542Z,31.7
2022-08-19T17:47:28.865Z,31.65
2022-08-19T17:49:57.075Z,31.63
2022-08-19T17:52:25.384Z,31.63
2022-08-19T17:55:30.672Z,31.61
2022-08-19T17:57:58.920Z,31.61
2022-08-19T18:00:27.149Z,31.61
2022-08-19T18:02:55.428Z,31.61
2022-08-19T18:05:15.480Z,31.51
2022-08-19T18:08:20.873Z,31.63
2022-08-19T18:11:26.132Z,31.62
2022-08-19T18:13:54.332Z,31.61
2022-08-19T18:16:22.599Z,31.62
2022-08-19T18:19:40.567Z,31.62
2022-08-19T18:21:56.168Z,31.62
2022-08-19T18:24:24.382Z,31.59
2022-08-19T18:27:29.721Z,31.54
2022-08-19T18:29:57.949Z,31.54
2022-08-19T18:32:26.182Z,31.53
2022-08-19T18:34:54.455Z,31.51
2022-08-19T18:37:22.667Z,31.46
2022-08-19T18:40:28.010Z,31.43
2022-08-19T18:42:56.319Z,31.43
2022-08-19T18:45:24.498Z,31.37
2022-08-19T18:48:29.806Z,31.25
2022-08-19T18:50:58.072Z,31.22
2022-08-19T18:53:26.360Z,31.16
2022-08-19T18:57:08.701Z,30.99
2022-08-19T19:00:14.061Z,30.98
2022-08-19T19:03:19.282Z,30.99
2022-08-19T19:06:16.407Z,30.98
2022-08-19T19:09:21.741Z,30.91
2022-08-19T19:12:27.046Z,30.87
2022-08-19T19:14:55.330Z,30.81
2022-08-19T19:17:23.599Z,30.7
2022-08-19T19:20:35.035Z,30.59
2022-08-19T19:22:57.763Z,30.56
2022-08-19T19:25:25.362Z,30.46
2022-08-19T19:28:30.683Z,30.42
2022-08-19T19:30:58.904Z,30.4
2022-08-19T19:33:27.167Z,30.27
2022-08-19T19:35:55.407Z,30.23
2022-08-19T19:38:23.670Z,30.04
2022-08-19T19:41:29.014Z,30.15
2022-08-19T19:44:23.495Z,30.1
2022-08-19T19:46:25.468Z,30.14
2022-08-19T19:49:30.766Z,30.01
2022-08-19T19:51:59.046Z,29.98
2022-08-19T19:54:27.260Z,29.96
2022-08-19T19:56:55.516Z,29.96
2022-08-19T19:59:23.766Z,29.78
2022-08-19T20:02:29.183Z,29.9
2022-08-19T20:05:34.421Z,29.94
2022-08-19T20:07:54.605Z,29.99
2022-08-19T20:10:59.740Z,30
2022-08-19T20:13:28.020Z,29.93
2022-08-19T20:15:56.230Z,29.94
2022-08-19T20:18:57.120Z,29.83
2022-08-19T20:21:29.817Z,29.74
2022-08-19T20:24:08.794Z,29.72
2022-08-19T20:26:27.188Z,29.7
2022-08-19T20:29:37.830Z,29.66
2022-08-19T20:31:59.876Z,29.64
2022-08-19T20:34:28.124Z,29.56
2022-08-19T20:36:56.371Z,29.52
2022-08-19T20:39:24.619Z,29.49
2022-08-19T20:42:29.913Z,29.39
2022-08-19T20:44:58.198Z,29.42
2022-08-19T20:47:26.416Z,29.39
2022-08-19T20:49:54.673Z,29.23
2022-08-19T20:52:22.907Z,29.05
2022-08-19T20:55:28.255Z,28.94
2022-08-19T20:57:56.720Z,28.91
2022-08-19T21:00:24.713Z,28.96
2022-08-19T21:03:30.014Z,29.07
2022-08-19T21:05:50.110Z,29.09
2022-08-19T21:08:18.331Z,29.12
2022-08-19T21:11:23.642Z,29
2022-08-19T21:14:28.935Z,29.07
2022-08-19T21:16:57.201Z,29.06
2022-08-19T21:19:25.459Z,29.05
2022-08-19T21:22:30.745Z,29.13
2022-08-19T21:27:27.558Z,29.15
2022-08-19T21:29:55.549Z,29.14
2022-08-19T21:32:23.758Z,29.01
2022-08-19T21:35:29.087Z,29.12
2022-08-19T21:37:57.328Z,29.15
2022-08-19T21:40:25.560Z,29.05
2022-08-19T21:43:30.860Z,29.09
2022-08-19T21:45:59.164Z,29.12
2022-08-19T21:48:27.400Z,29.14
2022-08-19T21:50:55.648Z,29.12
2022-08-19T21:53:23.843Z,28.98
2022-08-19T21:56:29.206Z,29.09
2022-08-19T21:58:57.438Z,29.07
2022-08-19T22:01:25.799Z,29.05
2022-08-19T22:03:53.910Z,29.01
2022-08-19T22:06:13.962Z,29.02
2022-08-19T22:09:19.277Z,28.95
2022-08-19T22:12:24.632Z,28.91
2022-08-19T22:15:29.891Z,28.96
2022-08-19T22:17:58.173Z,28.98
2022-08-19T22:20:26.378Z,29.02
2022-08-19T22:22:54.630Z,29.05
2022-08-19T22:25:29.092Z,28.98
2022-08-19T22:28:28.276Z,28.99
2022-08-19T22:30:56.498Z,28.98
2022-08-19T22:33:24.692Z,28.91
2022-08-19T22:36:30.004Z,28.97
2022-08-19T22:38:58.286Z,28.97
2022-08-19T22:41:26.534Z,28.92
2022-08-19T22:44:31.831Z,28.88
2022-08-19T22:47:32.171Z,28.88
2022-08-19T22:50:00.518Z,28.87
2022-08-19T22:51:56.578Z,28.87
2022-08-19T22:54:24.829Z,28.77
2022-08-19T22:57:30.128Z,28.66
2022-08-19T22:59:58.958Z,28.63
2022-08-19T23:02:26.637Z,28.57
2022-08-19T23:04:54.892Z,28.58
2022-08-19T23:07:14.927Z,28.45
2022-08-19T23:10:26.576Z,28.44
2022-08-19T23:13:25.544Z,28.44
2022-08-19T23:16:30.844Z,28.54
2022-08-19T23:18:59.119Z,28.57
2022-08-19T23:21:27.378Z,28.68
2022-08-19T23:23:55.639Z,28.67
2022-08-19T23:26:23.874Z,28.53
2022-08-19T23:29:29.154Z,28.66
2022-08-19T23:31:57.452Z,28.69
2022-08-19T23:34:25.653Z,28.77
2022-08-19T23:37:30.990Z,28.78
2022-08-19T23:39:59.267Z,28.78
2022-08-19T23:42:27.486Z,28.7
2022-08-19T23:44:55.728Z,28.69
2022-08-19T23:47:23.968Z,28.54
2022-08-19T23:50:29.264Z,28.64
2022-08-19T23:52:57.541Z,28.64
2022-08-19T23:55:25.803Z,28.62
2022-08-19T23:58:31.095Z,28.6
